createdAt,value
2023-05-10T00:02:11.549Z,98984.65
2023-05-10T00:05:03.819Z,98979.79
2023-05-10T00:07:55.935Z,98976.30
2023-05-10T00:10:27.830Z,98978.58
2023-05-10T00:13:19.880Z,98977.20
2023-05-10T00:16:14.080Z,98976.31
2023-05-10T00:18:53.501Z,98979.96
2023-05-10T00:21:45.452Z,98974.23
2023-05-10T00:24:37.402Z,98979.08
2023-05-10T00:27:29.362Z,98976.11
2023-05-10T00:30:21.594Z,98977.85
2023-05-10T00:33:13.565Z,98974.02
2023-05-10T00:36:08.356Z,98973.32
2023-05-10T00:39:00.371Z,98970.00
2023-05-10T00:41:52.381Z,98969.14
2023-05-10T00:44:44.351Z,98966.89
2023-05-10T00:47:36.896Z,98966.52
2023-05-10T00:50:29.092Z,98965.65
2023-05-10T00:53:21.260Z,98965.65
2023-05-10T00:56:13.620Z,98963.02
2023-05-10T00:59:05.807Z,98962.33
2023-05-10T01:01:57.824Z,98964.57
2023-05-10T01:04:51.099Z,98963.16
2023-05-10T01:07:43.386Z,98961.41
2023-05-10T01:10:35.451Z,98958.45
2023-05-10T01:13:33.090Z,98959.14
2023-05-10T01:16:26.368Z,98952.52
2023-05-10T01:19:24.959Z,98951.46
2023-05-10T01:22:40.671Z,98951.62
2023-05-10T01:25:52.263Z,98949.52
2023-05-10T01:29:00.445Z,98953.52
2023-05-10T01:32:12.369Z,98954.17
2023-05-10T01:35:09.492Z,98956.77
2023-05-10T01:38:07.068Z,98949.81
2023-05-10T01:41:09.639Z,98951.69
2023-05-10T01:44:11.819Z,98946.45
2023-05-10T01:47:11.909Z,98944.20
2023-05-10T01:50:06.812Z,98944.00
2023-05-10T01:53:01.066Z,98938.77
2023-05-10T01:55:55.937Z,98939.81
2023-05-10T01:58:33.599Z,98938.42
2023-05-10T02:01:17.523Z,98933.89
2023-05-10T02:04:11.098Z,98935.23
2023-05-10T02:07:04.136Z,98931.77
2023-05-10T02:09:57.667Z,98929.15
2023-05-10T02:12:52.720Z,98929.50
2023-05-10T02:15:49.274Z,98926.69
2023-05-10T02:18:43.207Z,98925.64
2023-05-10T02:21:37.317Z,98923.71
2023-05-10T02:24:30.516Z,98921.44
2023-05-10T02:27:24.680Z,98919.66
2023-05-10T02:30:18.065Z,98918.96
2023-05-10T02:33:10.677Z,98917.54
2023-05-10T02:36:03.570Z,98915.42
2023-05-10T02:38:57.009Z,98915.41
2023-05-10T02:41:51.970Z,98912.41
2023-05-10T02:44:45.251Z,98916.73
2023-05-10T02:47:37.873Z,98910.83
2023-05-10T02:50:32.412Z,98917.55
2023-05-10T02:53:32.794Z,98916.82
2023-05-10T02:56:32.366Z,98916.81
2023-05-10T02:59:24.356Z,98912.44
2023-05-10T03:02:16.579Z,98914.13
2023-05-10T03:05:09.614Z,98914.98
2023-05-10T03:08:05.050Z,98916.17
2023-05-10T03:11:14.565Z,98918.73
2023-05-10T03:14:18.848Z,98921.83
2023-05-10T03:17:02.604Z,98921.66
2023-05-10T03:19:59.476Z,98917.14
2023-05-10T03:22:57.822Z,98918.34
2023-05-10T03:25:52.473Z,98911.23
2023-05-10T03:28:45.770Z,98915.73
2023-05-10T03:31:37.912Z,98919.73
2023-05-10T03:34:32.220Z,98916.09
2023-05-10T03:37:24.244Z,98915.75
2023-05-10T03:40:17.563Z,98913.34
2023-05-10T03:43:09.854Z,98913.17
2023-05-10T03:46:03.340Z,98911.80
2023-05-10T03:48:55.292Z,98909.41
2023-05-10T03:51:47.362Z,98909.77
2023-05-10T03:54:39.311Z,98905.64
2023-05-10T03:57:31.308Z,98907.60
2023-05-10T04:00:23.862Z,98912.48
2023-05-10T04:03:16.167Z,98907.67
2023-05-10T04:06:10.066Z,98909.80
2023-05-10T04:09:05.075Z,98914.20
2023-05-10T04:11:57.069Z,98910.42
2023-05-10T04:14:49.029Z,98910.82
2023-05-10T04:17:41.040Z,98903.94
2023-05-10T04:20:34.062Z,98907.11
2023-05-10T04:23:26.067Z,98909.95
2023-05-10T04:26:18.094Z,98907.04
2023-05-10T04:29:10.090Z,98912.46
2023-05-10T04:32:02.079Z,98916.32
2023-05-10T04:34:54.095Z,98912.71
2023-05-10T04:37:46.064Z,98916.55
2023-05-10T04:40:37.980Z,98912.41
2023-05-10T04:43:29.919Z,98911.91
2023-05-10T04:46:21.879Z,98914.36
2023-05-10T04:49:13.998Z,98909.66
2023-05-10T04:52:06.122Z,98906.04
2023-05-10T04:54:58.423Z,98910.20
2023-05-10T04:57:50.522Z,98913.82
2023-05-10T05:00:43.208Z,98913.60
2023-05-10T05:03:35.357Z,98912.50
2023-05-10T05:06:28.254Z,98911.23
2023-05-10T05:09:20.367Z,98909.77
2023-05-10T05:12:15.025Z,98906.73
2023-05-10T05:15:10.028Z,98904.36
2023-05-10T05:18:02.018Z,98905.12
2023-05-10T05:20:54.051Z,98898.16
2023-05-10T05:23:46.090Z,98898.35
2023-05-10T05:26:38.589Z,98894.35
2023-05-10T05:29:30.719Z,98896.05
2023-05-10T05:32:22.746Z,98894.05
2023-05-10T05:35:15.194Z,98897.05
2023-05-10T05:38:07.425Z,98893.02
2023-05-10T05:40:59.540Z,98891.55
2023-05-10T05:43:51.610Z,98888.35
2023-05-10T05:46:43.586Z,98886.41
2023-05-10T05:49:35.758Z,98889.73
2023-05-10T05:52:27.734Z,98886.23
2023-05-10T05:55:19.990Z,98885.00
2023-05-10T05:58:03.170Z,98886.50
2023-05-10T06:00:55.581Z,98884.02
2023-05-10T06:03:47.771Z,98881.09
2023-05-10T06:06:39.870Z,98878.16
2023-05-10T06:09:31.940Z,98871.79
2023-05-10T06:12:23.876Z,98868.24
2023-05-10T06:15:16.170Z,98863.22
2023-05-10T06:18:08.430Z,98867.30
2023-05-10T06:20:49.448Z,98863.27
2023-05-10T06:23:41.392Z,98866.94
2023-05-10T06:26:33.403Z,98859.11
2023-05-10T06:29:25.326Z,98862.45
2023-05-10T06:32:17.303Z,98861.59
2023-05-10T06:35:10.927Z,98865.80
2023-05-10T06:38:02.939Z,98859.02
2023-05-10T06:40:54.927Z,98860.03
2023-05-10T06:43:46.922Z,98856.45
2023-05-10T06:46:39.057Z,98852.11
2023-05-10T06:49:26.947Z,98852.60
2023-05-10T06:52:18.955Z,98853.25
2023-05-10T06:55:12.418Z,98850.65
2023-05-10T06:58:04.407Z,98840.84
2023-05-10T07:00:56.444Z,98835.39
2023-05-10T07:03:48.443Z,98832.18
2023-05-10T07:06:40.444Z,98824.48
2023-05-10T07:09:25.383Z,98820.48
2023-05-10T07:12:17.398Z,98814.75
2023-05-10T07:15:11.448Z,98813.24
2023-05-10T07:18:03.585Z,98806.66
2023-05-10T07:20:40.990Z,98805.14
2023-05-10T07:23:32.940Z,98808.99
2023-05-10T07:26:24.994Z,98807.98
2023-05-10T07:29:16.942Z,98801.77
2023-05-10T07:32:09.665Z,98807.12
2023-05-10T07:35:02.049Z,98805.10
2023-05-10T07:37:54.039Z,98805.54
2023-05-10T07:40:46.034Z,98806.73
2023-05-10T07:43:38.074Z,98805.30
2023-05-10T07:46:30.115Z,98805.49
2023-05-10T07:49:22.314Z,98803.02
2023-05-10T07:52:14.649Z,98803.70
2023-05-10T07:55:08.239Z,98803.33
2023-05-10T07:58:01.987Z,98796.98
2023-05-10T08:00:54.467Z,98799.36
2023-05-10T08:03:46.605Z,98797.18
2023-05-10T08:06:38.656Z,98796.08
2023-05-10T08:09:30.682Z,98796.21
2023-05-10T08:12:22.672Z,98799.36
2023-05-10T08:15:15.652Z,98794.89
2023-05-10T08:17:47.670Z,98796.27
2023-05-10T08:20:39.627Z,98796.05
2023-05-10T08:23:31.594Z,98794.58
2023-05-10T08:26:12.513Z,98801.83
2023-05-10T08:29:04.795Z,98799.70
2023-05-10T08:31:56.811Z,98798.27
2023-05-10T08:34:48.798Z,98796.77
2023-05-10T08:37:40.831Z,98808.44
2023-05-10T08:40:33.001Z,98798.33
2023-05-10T08:43:28.327Z,98808.72
2023-05-10T08:46:22.211Z,98802.85
2023-05-10T08:49:06.674Z,98795.48
2023-05-10T08:51:59.603Z,98798.64
2023-05-10T08:54:51.906Z,98797.21
2023-05-10T08:57:44.278Z,98801.58
2023-05-10T09:00:25.867Z,98797.71
2023-05-10T09:03:18.031Z,98796.40
2023-05-10T09:06:10.296Z,98801.86
2023-05-10T09:09:02.443Z,98807.58
2023-05-10T09:11:55.774Z,98797.70
2023-05-10T09:14:48.421Z,98798.06
2023-05-10T09:17:41.119Z,98795.67
2023-05-10T09:20:33.181Z,98800.39
2023-05-10T09:31:00.214Z,98795.77
2023-05-10T09:33:52.722Z,98799.08
2023-05-10T09:36:56.052Z,98798.25
2023-05-10T09:39:48.043Z,98798.67
2023-05-10T09:42:40.044Z,98799.29
2023-05-10T09:45:35.549Z,98802.96
2023-05-10T09:48:29.102Z,98799.91
2023-05-10T09:51:11.210Z,98798.00
2023-05-10T09:54:14.589Z,98792.41
2023-05-10T09:57:06.920Z,98793.73
2023-05-10T10:00:02.295Z,98797.23
2023-05-10T10:02:43.543Z,98791.42
2023-05-10T10:05:37.331Z,98791.82
2023-05-10T10:08:29.552Z,98784.05
2023-05-10T10:11:21.859Z,98783.59
2023-05-10T10:14:15.156Z,98780.26
2023-05-10T10:17:08.674Z,98778.23
2023-05-10T10:20:01.541Z,98781.88
2023-05-10T10:22:53.982Z,98772.05
2023-05-10T10:25:48.739Z,98767.98
2023-05-10T10:28:49.683Z,98761.87
2023-05-10T10:31:48.187Z,98757.91
2023-05-10T10:34:42.921Z,98762.14
2023-05-10T10:37:49.246Z,98761.27
2023-05-10T10:40:41.621Z,98756.90
2023-05-10T10:43:33.637Z,98754.89
2023-05-10T10:46:18.884Z,98753.08
2023-05-10T10:49:13.979Z,98747.65
2023-05-10T10:52:22.958Z,98746.69
2023-05-10T10:55:19.136Z,98747.21
2023-05-10T10:58:11.480Z,98742.73
2023-05-10T11:01:17.823Z,98740.54
2023-05-10T11:04:22.353Z,98732.46
2023-05-10T11:07:21.689Z,98737.20
2023-05-10T11:10:22.486Z,98734.45
2023-05-10T11:13:14.474Z,98736.59
2023-05-10T11:16:17.877Z,98740.05
2023-05-10T11:19:04.633Z,98735.18
2023-05-10T11:21:55.019Z,98729.10
2023-05-10T11:24:30.647Z,98727.92
2023-05-10T11:27:22.708Z,98725.33
2023-05-10T11:30:16.704Z,98728.67
2023-05-10T11:33:09.466Z,98730.51
2023-05-10T11:36:01.546Z,98726.14
2023-05-10T11:38:36.515Z,98715.78
2023-05-10T11:41:30.762Z,98712.45
2023-05-10T11:44:22.747Z,98710.67
2023-05-10T11:47:10.143Z,98702.73
2023-05-10T11:50:02.606Z,98709.95
2023-05-10T11:52:56.311Z,98707.65
2023-05-10T11:55:48.347Z,98702.31
2023-05-10T11:58:28.764Z,98702.53
2023-05-10T12:01:20.874Z,98696.64
2023-05-10T12:04:13.125Z,98702.73
2023-05-10T12:06:57.140Z,98702.70
2023-05-10T12:10:06.302Z,98701.27
2023-05-10T12:12:43.901Z,98704.73
2023-05-10T12:15:34.489Z,98705.85
2023-05-10T12:18:27.705Z,98705.45
2023-05-10T12:21:16.862Z,98706.28
2023-05-10T12:24:09.414Z,98699.61
2023-05-10T12:26:52.217Z,98694.77
2023-05-10T12:29:46.839Z,98698.46
2023-05-10T12:32:46.096Z,98697.96
2023-05-10T12:35:47.834Z,98698.39
2023-05-10T12:38:41.216Z,98700.92
2023-05-10T12:41:16.867Z,98694.39
2023-05-10T12:44:08.837Z,98694.13
2023-05-10T12:47:00.877Z,98691.52
2023-05-10T12:49:53.111Z,98690.52
2023-05-10T12:52:45.091Z,98687.61
2023-05-10T12:55:37.119Z,98685.05
2023-05-10T12:58:35.715Z,98674.23
2023-05-10T13:01:34.421Z,98679.42
2023-05-10T13:04:26.801Z,98672.98
2023-05-10T13:07:18.907Z,98676.56
2023-05-10T13:10:12.412Z,98671.86
2023-05-10T13:13:04.782Z,98671.76
2023-05-10T13:15:56.873Z,98665.05
2023-05-10T13:18:48.962Z,98659.42
2023-05-10T13:21:41.916Z,98657.72
2023-05-10T13:24:34.221Z,98657.96
2023-05-10T13:27:26.405Z,98650.61
2023-05-10T13:30:18.684Z,98654.25
2023-05-10T13:33:11.056Z,98652.84
2023-05-10T13:36:03.120Z,98649.34
2023-05-10T13:38:55.170Z,98655.80
2023-05-10T13:41:47.186Z,98658.83
2023-05-10T13:44:39.805Z,98651.15
2023-05-10T13:47:32.109Z,98648.67
2023-05-10T13:50:24.331Z,98645.08
2023-05-10T13:53:16.485Z,98638.30
2023-05-10T13:56:09.038Z,98632.30
2023-05-10T13:59:01.227Z,98632.47
2023-05-10T14:01:53.467Z,98630.08
2023-05-10T14:04:45.552Z,98630.45
2023-05-10T14:07:37.952Z,98630.27
2023-05-10T14:10:30.202Z,98628.66
2023-05-10T14:13:07.276Z,98634.05
2023-05-10T14:16:01.470Z,98621.63
2023-05-10T14:18:53.525Z,98625.21
2023-05-10T14:21:26.113Z,98625.90
2023-05-10T14:24:18.096Z,98624.38
2023-05-10T14:27:10.221Z,98623.96
2023-05-10T14:30:02.243Z,98623.34
2023-05-10T14:32:55.037Z,98619.50
2023-05-10T14:35:48.661Z,98618.70
2023-05-10T14:38:41.157Z,98617.14
2023-05-10T14:41:33.895Z,98615.46
2023-05-10T14:44:27.235Z,98611.90
2023-05-10T14:47:04.527Z,98610.64
2023-05-10T14:49:56.574Z,98615.45
2023-05-10T14:52:48.797Z,98612.83
2023-05-10T14:55:40.922Z,98610.63
2023-05-10T14:58:34.321Z,98609.04
2023-05-10T15:01:26.623Z,98608.94
2023-05-10T15:04:19.168Z,98610.71
2023-05-10T15:07:15.243Z,98606.94
2023-05-10T15:09:56.210Z,98608.98
2023-05-10T15:12:39.678Z,98611.71
2023-05-10T15:15:31.877Z,98608.60
2023-05-10T15:18:26.935Z,98611.30
2023-05-10T15:21:19.099Z,98614.27
2023-05-10T15:24:11.740Z,98609.20
2023-05-10T15:27:03.806Z,98608.42
2023-05-10T15:29:56.261Z,98604.27
2023-05-10T15:32:48.455Z,98606.91
2023-05-10T15:35:40.681Z,98606.52
2023-05-10T15:38:32.804Z,98605.37
2023-05-10T15:41:21.822Z,98606.36
2023-05-10T15:44:13.801Z,98605.69
2023-05-10T15:47:06.058Z,98605.41
2023-05-10T15:49:58.346Z,98606.64
2023-05-10T15:52:50.368Z,98607.41
2023-05-10T15:55:42.423Z,98610.13
2023-05-10T15:58:34.592Z,98611.45
2023-05-10T16:01:26.895Z,98614.63
2023-05-10T16:04:19.106Z,98610.08
2023-05-10T16:07:11.118Z,98612.11
2023-05-10T16:10:04.219Z,98616.73
2023-05-10T16:12:57.668Z,98617.90
2023-05-10T16:15:49.817Z,98618.28
2023-05-10T16:18:32.648Z,98620.15
2023-05-10T16:21:24.814Z,98623.73
2023-05-10T16:24:17.015Z,98618.98
2023-05-10T16:27:09.927Z,98617.85
2023-05-10T16:30:02.213Z,98624.37
2023-05-10T16:32:54.465Z,98625.68
2023-05-10T16:35:46.537Z,98625.23
2023-05-10T16:38:38.683Z,98629.78
2023-05-10T16:41:33.622Z,98630.55
2023-05-10T16:44:26.049Z,98636.10
2023-05-10T16:47:18.244Z,98635.77
2023-05-10T16:50:11.548Z,98641.48
2023-05-10T16:52:53.876Z,98644.73
2023-05-10T16:55:46.063Z,98643.81
2023-05-10T16:58:38.156Z,98644.64
2023-05-10T17:01:30.319Z,98648.19
2023-05-10T17:04:04.838Z,98645.39
2023-05-10T17:06:56.976Z,98646.57
2023-05-10T17:09:49.209Z,98649.91
2023-05-10T17:12:41.289Z,98652.48
2023-05-10T17:15:33.332Z,98656.30
2023-05-10T17:18:26.683Z,98658.44
2023-05-10T17:21:18.862Z,98661.17
2023-05-10T17:24:11.561Z,98662.94
2023-05-10T17:27:04.428Z,98665.20
2023-05-10T17:30:00.006Z,98672.02
2023-05-10T17:32:54.177Z,98670.22
2023-05-10T17:35:49.098Z,98670.98
2023-05-10T17:38:41.205Z,98671.32
2023-05-10T17:41:33.622Z,98670.02
2023-05-10T17:44:26.023Z,98671.19
2023-05-10T17:47:18.369Z,98675.86
2023-05-10T17:50:11.908Z,98680.69
2023-05-10T17:53:03.998Z,98686.30
2023-05-10T17:55:58.034Z,98691.13
2023-05-10T17:58:50.539Z,98695.15
2023-05-10T18:01:42.669Z,98698.27
2023-05-10T18:04:34.807Z,98699.11
2023-05-10T18:07:27.192Z,98698.79
2023-05-10T18:10:19.366Z,98700.79
2023-05-10T18:13:11.823Z,98703.80
2023-05-10T18:16:05.682Z,98705.35
2023-05-10T18:18:58.515Z,98708.65
2023-05-10T18:21:50.638Z,98711.02
2023-05-10T18:24:42.875Z,98714.89
2023-05-10T18:27:35.066Z,98717.65
2023-05-10T18:30:12.576Z,98718.69
2023-05-10T18:33:05.026Z,98721.43
2023-05-10T18:35:57.235Z,98728.92
2023-05-10T18:38:49.323Z,98732.91
2023-05-10T18:41:41.605Z,98735.19
2023-05-10T18:44:33.810Z,98739.97
2023-05-10T18:47:26.787Z,98741.33
2023-05-10T18:50:19.805Z,98741.60
2023-05-10T18:53:12.298Z,98745.73
2023-05-10T18:56:04.535Z,98747.85
2023-05-10T18:58:56.673Z,98750.66
2023-05-10T19:01:51.099Z,98758.23
2023-05-10T19:04:43.556Z,98758.62
2023-05-10T19:07:35.851Z,98764.70
2023-05-10T19:10:27.876Z,98767.42
2023-05-10T19:13:19.884Z,98766.55
2023-05-10T19:16:16.683Z,98771.33
2023-05-10T19:18:57.760Z,98767.02
2023-05-10T19:21:50.036Z,98769.38
2023-05-10T19:24:25.866Z,98770.09
2023-05-10T19:27:18.068Z,98769.00
2023-05-10T19:30:01.591Z,98769.98
2023-05-10T19:32:53.718Z,98770.18
2023-05-10T19:35:45.919Z,98771.92
2023-05-10T19:38:38.085Z,98768.16
2023-05-10T19:41:30.029Z,98774.66
2023-05-10T19:44:23.041Z,98778.47
2023-05-10T19:47:15.241Z,98777.52
2023-05-10T19:50:09.054Z,98780.65
2023-05-10T19:53:01.580Z,98779.01
2023-05-10T19:55:53.536Z,98777.72
2023-05-10T19:58:45.542Z,98777.14
2023-05-10T20:01:37.716Z,98776.27
2023-05-10T20:04:27.043Z,98780.75
2023-05-10T20:07:19.097Z,98779.66
2023-05-10T20:10:12.653Z,98779.66
2023-05-10T20:13:04.762Z,98784.17
2023-05-10T20:16:00.034Z,98785.58
2023-05-10T20:18:51.256Z,98782.40
2023-05-10T20:21:44.214Z,98785.69
2023-05-10T20:24:36.228Z,98783.16
2023-05-10T20:27:28.184Z,98787.47
2023-05-10T20:30:20.451Z,98785.40
2023-05-10T20:33:15.530Z,98786.75
2023-05-10T20:36:09.534Z,98782.80
2023-05-10T20:39:01.581Z,98780.14
2023-05-10T20:41:54.626Z,98779.60
2023-05-10T20:44:46.795Z,98782.73
2023-05-10T20:47:39.271Z,98783.58
2023-05-10T20:50:14.721Z,98788.91
2023-05-10T20:53:06.882Z,98793.02
2023-05-10T20:55:58.900Z,98791.16
2023-05-10T20:58:50.797Z,98793.40
2023-05-10T21:01:42.878Z,98791.93
2023-05-10T21:04:35.016Z,98795.23
2023-05-10T21:07:27.146Z,98791.98
2023-05-10T21:10:19.319Z,98794.30
2023-05-10T21:13:11.432Z,98796.88
2023-05-10T21:16:03.389Z,98796.56
2023-05-10T21:18:55.438Z,98799.61
2023-05-10T21:21:47.409Z,98804.44
2023-05-10T21:24:39.456Z,98802.58
2023-05-10T21:27:31.444Z,98802.27
2023-05-10T21:30:23.527Z,98803.17
2023-05-10T21:33:15.598Z,98803.58
2023-05-10T21:36:08.585Z,98806.99
2023-05-10T21:39:00.647Z,98812.63
2023-05-10T21:41:52.565Z,98811.08
2023-05-10T21:44:44.623Z,98814.77
2023-05-10T21:47:37.231Z,98808.98
2023-05-10T21:50:29.350Z,98812.64
2023-05-10T21:53:22.313Z,98813.18
2023-05-10T21:55:55.178Z,98814.95
2023-05-10T21:58:37.026Z,98816.17
2023-05-10T22:01:29.153Z,98818.09
2023-05-10T22:04:21.242Z,98815.11
2023-05-10T22:07:13.505Z,98815.99
2023-05-10T22:10:06.216Z,98811.83
2023-05-10T22:12:59.638Z,98813.11
2023-05-10T22:15:51.689Z,98818.80
2023-05-10T22:18:44.222Z,98817.96
2023-05-10T22:21:36.223Z,98820.63
2023-05-10T22:24:28.219Z,98820.69
2023-05-10T22:27:20.176Z,98823.20
2023-05-10T22:30:13.502Z,98826.62
2023-05-10T22:33:05.596Z,98831.63
2023-05-10T22:35:57.578Z,98829.41
2023-05-10T22:38:49.568Z,98832.24
2023-05-10T22:41:41.514Z,98833.89
2023-05-10T22:44:33.516Z,98833.14
2023-05-10T22:47:25.624Z,98835.66
2023-05-10T22:50:19.348Z,98841.52
2023-05-10T22:53:11.524Z,98843.00
2023-05-10T22:56:03.599Z,98843.62
2023-05-10T22:58:55.944Z,98848.77
2023-05-10T23:01:48.913Z,98849.36
2023-05-10T23:04:40.984Z,98851.91
2023-05-10T23:07:33.024Z,98851.61
2023-05-10T23:10:25.149Z,98849.73
2023-05-10T23:13:17.300Z,98852.44
2023-05-10T23:16:09.894Z,98853.94
2023-05-10T23:19:02.093Z,98855.44
2023-05-10T23:21:54.131Z,98854.61
2023-05-10T23:24:35.908Z,98851.37
2023-05-10T23:27:31.068Z,98854.61
2023-05-10T23:30:23.155Z,98854.67
2023-05-10T23:33:15.131Z,98853.70
2023-05-10T23:36:07.782Z,98851.33
2023-05-10T23:38:59.734Z,98853.88
2023-05-10T23:41:42.718Z,98856.90
2023-05-10T23:44:34.754Z,98857.19
2023-05-10T23:47:26.871Z,98855.84
2023-05-10T23:50:19.348Z,98860.10
2023-05-10T23:53:11.647Z,98860.52
2023-05-10T23:55:46.395Z,98861.48
2023-05-10T23:58:38.568Z,98860.84
